createdAt,value
2022-08-25T00:01:53.718Z,1.40
2022-08-25T00:04:24.070Z,1.67
2022-08-25T00:06:58.248Z,1.70
2022-08-25T00:09:29.734Z,1.88
2022-08-25T00:11:58.689Z,1.70
2022-08-25T00:14:31.113Z,1.95
2022-08-25T00:17:01.441Z,1.60
2022-08-25T00:19:34.915Z,1.70
2022-08-25T00:22:03.941Z,1.70
2022-08-25T00:24:32.578Z,1.70
2022-08-25T00:27:02.489Z,1.70
2022-08-25T00:29:32.053Z,1.52
2022-08-25T00:32:03.088Z,1.70
2022-08-25T00:34:36.337Z,1.55
2022-08-25T00:37:09.824Z,1.58
2022-08-25T00:39:38.962Z,1.77
2022-08-25T00:42:15.819Z,1.45
2022-08-25T00:44:45.128Z,1.60
2022-08-25T00:47:15.222Z,1.50
2022-08-25T00:49:47.693Z,1.83
2022-08-25T00:52:19.706Z,1.63
2022-08-25T00:54:53.090Z,1.67
2022-08-25T00:57:34.601Z,1.40
2022-08-25T01:00:10.490Z,1.80
2022-08-25T01:02:40.327Z,1.50
2022-08-25T01:05:09.021Z,1.60
2022-08-25T01:07:38.017Z,1.60
2022-08-25T01:10:08.627Z,1.60
2022-08-25T01:12:37.718Z,1.70
2022-08-25T01:15:09.005Z,1.60
2022-08-25T01:17:48.942Z,1.50
2022-08-25T01:20:19.583Z,1.70
2022-08-25T01:22:55.200Z,1.65
2022-08-25T01:25:42.853Z,1.40
2022-08-25T01:28:11.391Z,1.45
2022-08-25T01:30:40.336Z,1.50
2022-08-25T01:33:11.203Z,1.70
2022-08-25T01:35:40.676Z,1.45
2022-08-25T01:38:11.187Z,1.52
2022-08-25T01:40:40.712Z,1.67
2022-08-25T01:43:18.398Z,1.42
2022-08-25T01:45:48.816Z,1.65
2022-08-25T01:48:17.851Z,1.70
2022-08-25T01:50:46.809Z,1.70
2022-08-25T01:53:23.957Z,1.70
2022-08-25T01:56:01.749Z,1.77
2022-08-25T01:58:32.737Z,1.45
2022-08-25T02:01:02.785Z,1.60
2022-08-25T02:03:32.554Z,1.70
2022-08-25T02:06:01.797Z,1.55
2022-08-25T02:08:34.529Z,1.58
2022-08-25T02:11:03.316Z,1.70
2022-08-25T02:13:32.606Z,1.80
2022-08-25T02:16:02.425Z,1.70
2022-08-25T02:18:30.945Z,1.55
2022-08-25T02:20:59.364Z,1.50
2022-08-25T02:23:28.203Z,1.77
2022-08-25T02:25:58.288Z,1.58
2022-08-25T02:28:27.313Z,1.50
2022-08-25T02:30:58.777Z,1.80
2022-08-25T02:35:59.935Z,1.58
2022-08-25T02:38:28.957Z,1.63
2022-08-25T02:41:00.106Z,1.80
2022-08-25T02:43:29.592Z,1.60
2022-08-25T02:45:59.259Z,1.67
2022-08-25T02:48:28.457Z,1.83
2022-08-25T02:51:00.734Z,1.70
2022-08-25T02:53:30.243Z,1.73
2022-08-25T02:56:00.729Z,1.85
2022-08-25T02:58:29.110Z,1.70
2022-08-25T03:00:58.389Z,1.70
2022-08-25T03:03:27.005Z,1.95
2022-08-25T03:05:56.431Z,1.70
2022-08-25T03:08:25.426Z,1.95
2022-08-25T03:11:03.042Z,1.73
2022-08-25T03:13:33.026Z,1.75
2022-08-25T03:16:01.874Z,2.00
2022-08-25T03:18:31.610Z,1.83
2022-08-25T03:21:00.418Z,1.77
2022-08-25T03:23:28.775Z,1.90
2022-08-25T03:26:15.320Z,1.85
2022-08-25T03:28:45.046Z,1.77
2022-08-25T03:31:13.430Z,1.77
2022-08-25T03:33:41.865Z,2.00
2022-08-25T03:36:12.216Z,1.98
2022-08-25T03:38:41.433Z,1.98
2022-08-25T03:41:15.373Z,1.75
2022-08-25T03:43:45.461Z,1.80
2022-08-25T03:46:21.270Z,2.10
2022-08-25T03:48:50.261Z,1.92
2022-08-25T03:51:23.052Z,2.00
2022-08-25T03:53:52.335Z,2.10
2022-08-25T03:56:21.581Z,1.90
2022-08-25T03:58:51.533Z,1.98
2022-08-25T04:01:20.181Z,2.33
2022-08-25T04:03:49.145Z,1.88
2022-08-25T04:06:19.498Z,2.13
2022-08-25T04:08:47.958Z,1.80
2022-08-25T04:11:18.882Z,2.03
2022-08-25T04:13:48.318Z,1.90
2022-08-25T04:16:20.686Z,2.00
2022-08-25T04:18:49.838Z,1.90
2022-08-25T04:21:20.141Z,2.40
2022-08-25T04:23:51.015Z,2.10
2022-08-25T04:26:21.855Z,2.30
2022-08-25T04:28:50.561Z,2.10
2022-08-25T04:31:22.693Z,2.28
2022-08-25T04:33:51.282Z,2.10
2022-08-25T04:36:21.409Z,2.10
2022-08-25T04:38:50.828Z,2.10
2022-08-25T04:41:22.263Z,2.00
2022-08-25T04:43:51.316Z,2.25
2022-08-25T04:46:23.685Z,2.40
2022-08-25T04:48:53.391Z,2.30
2022-08-25T04:51:25.820Z,2.50
2022-08-25T04:53:54.720Z,2.30
2022-08-25T04:56:25.229Z,2.22
2022-08-25T04:58:54.511Z,2.42
2022-08-25T05:01:26.128Z,2.20
2022-08-25T05:03:56.634Z,2.20
2022-08-25T05:06:25.412Z,2.28
2022-08-25T05:08:54.368Z,2.10
2022-08-25T05:11:23.615Z,2.20
2022-08-25T05:13:54.448Z,2.30
2022-08-25T05:16:27.087Z,2.40
2022-08-25T05:18:59.660Z,2.30
2022-08-25T05:21:29.349Z,2.15
2022-08-25T05:23:58.808Z,2.40
2022-08-25T05:26:30.671Z,2.47
2022-08-25T05:29:00.523Z,2.50
2022-08-25T05:31:30.284Z,2.60
2022-08-25T05:33:59.999Z,2.58
2022-08-25T05:36:29.494Z,2.50
2022-08-25T05:38:57.942Z,2.55
2022-08-25T05:41:28.816Z,2.38
2022-08-25T05:43:58.117Z,2.53
2022-08-25T05:46:26.876Z,2.38
2022-08-25T05:48:56.810Z,2.60
2022-08-25T05:51:25.174Z,2.35
2022-08-25T05:53:56.498Z,2.50
2022-08-25T05:56:24.867Z,2.40
2022-08-25T05:58:53.242Z,2.40
2022-08-25T06:01:43.575Z,2.45
2022-08-25T06:04:16.196Z,2.20
2022-08-25T06:06:44.746Z,2.17
2022-08-25T06:09:13.162Z,2.30
2022-08-25T06:11:42.975Z,2.17
2022-08-25T06:14:11.936Z,2.50
2022-08-25T06:16:40.764Z,2.58
2022-08-25T06:19:10.683Z,2.42
2022-08-25T06:21:40.996Z,2.30
2022-08-25T06:24:15.179Z,2.70
2022-08-25T06:26:44.380Z,2.60
2022-08-25T06:29:13.950Z,2.47
2022-08-25T06:31:43.185Z,2.38
2022-08-25T06:34:12.268Z,2.75
2022-08-25T06:36:42.216Z,2.45
2022-08-25T06:39:10.812Z,3.00
2022-08-25T06:41:39.808Z,2.58
2022-08-25T06:44:08.262Z,2.45
2022-08-25T06:46:37.168Z,2.30
2022-08-25T06:49:06.694Z,2.70
2022-08-25T06:51:36.650Z,2.47
2022-08-25T06:54:07.792Z,2.67
2022-08-25T06:56:36.185Z,2.60
2022-08-25T06:59:05.542Z,2.47
2022-08-25T07:01:34.716Z,2.63
2022-08-25T07:04:10.413Z,2.80
2022-08-25T07:06:41.969Z,3.05
2022-08-25T07:09:13.065Z,2.80
2022-08-25T07:11:42.446Z,2.60
2022-08-25T07:14:12.820Z,2.70
2022-08-25T07:16:46.013Z,2.70
2022-08-25T07:19:21.402Z,2.60
2022-08-25T07:21:54.432Z,2.67
2022-08-25T07:24:24.646Z,2.30
2022-08-25T07:26:53.540Z,2.30
2022-08-25T07:29:32.141Z,2.55
2022-08-25T07:32:01.931Z,2.70
2022-08-25T07:34:52.398Z,2.42
2022-08-25T07:40:15.710Z,2.50
2022-08-25T07:42:44.675Z,2.50
2022-08-25T07:45:15.619Z,2.60
2022-08-25T07:47:51.658Z,2.55
2022-08-25T07:50:21.088Z,2.70
2022-08-25T07:52:52.204Z,2.97
2022-08-25T07:55:25.941Z,2.58
2022-08-25T07:57:57.361Z,2.80
2022-08-25T08:00:27.860Z,2.70
2022-08-25T08:02:57.082Z,3.10
2022-08-25T08:05:26.951Z,3.20
2022-08-25T08:07:56.718Z,2.70
2022-08-25T08:11:04.894Z,2.80
2022-08-25T08:13:18.493Z,3.08
2022-08-25T08:15:48.063Z,2.80
2022-08-25T08:18:16.999Z,2.97
2022-08-25T08:20:47.660Z,2.70
2022-08-25T08:23:17.208Z,2.70
2022-08-25T08:25:47.323Z,2.45
2022-08-25T08:28:15.665Z,2.50
2022-08-25T08:30:53.779Z,2.30
2022-08-25T08:33:24.554Z,2.63
2022-08-25T08:36:04.867Z,2.58
2022-08-25T08:38:34.680Z,2.92
2022-08-25T08:41:54.256Z,2.78
2022-08-25T08:44:29.360Z,2.80
2022-08-25T08:47:11.443Z,2.55
2022-08-25T08:49:50.734Z,3.13
2022-08-25T08:52:23.792Z,2.65
2022-08-25T08:55:01.176Z,2.70
2022-08-25T08:57:35.668Z,2.80
2022-08-25T09:00:07.063Z,3.10
2022-08-25T09:02:51.638Z,2.65
2022-08-25T09:05:24.185Z,2.75
2022-08-25T09:07:58.298Z,2.80
2022-08-25T09:13:05.863Z,2.50
2022-08-25T09:16:07.952Z,2.92
2022-08-25T09:18:51.189Z,2.58
2022-08-25T09:21:28.085Z,2.83
2022-08-25T09:24:12.138Z,2.70
2022-08-25T09:26:49.800Z,2.83
2022-08-25T09:29:23.399Z,2.40
2022-08-25T09:31:59.462Z,2.50
2022-08-25T09:34:34.966Z,2.40
2022-08-25T09:37:03.358Z,2.20
2022-08-25T09:39:33.090Z,2.47
2022-08-25T09:42:01.498Z,2.40
2022-08-25T09:44:34.411Z,2.60
2022-08-25T09:47:08.292Z,2.25
2022-08-25T09:49:40.501Z,2.38
2022-08-25T09:52:31.833Z,2.85
2022-08-25T09:55:03.201Z,2.40
2022-08-25T09:57:35.863Z,2.55
2022-08-25T10:00:17.391Z,2.60
2022-08-25T10:03:05.918Z,2.30
2022-08-25T10:05:39.371Z,2.75
2022-08-25T10:08:14.704Z,2.60
2022-08-25T10:10:47.350Z,2.55
2022-08-25T10:13:22.764Z,2.50
2022-08-25T10:16:20.643Z,2.40
2022-08-25T10:19:07.526Z,2.47
2022-08-25T10:21:38.089Z,2.50
2022-08-25T10:24:08.138Z,2.78
2022-08-25T10:26:53.280Z,2.55
2022-08-25T10:29:35.953Z,2.70
2022-08-25T10:32:14.415Z,3.05
2022-08-25T10:34:51.883Z,2.65
2022-08-25T10:37:35.791Z,2.72
2022-08-25T10:40:23.033Z,2.80
2022-08-25T10:43:03.362Z,3.00
2022-08-25T10:45:45.432Z,2.50
2022-08-25T10:48:44.160Z,2.70
2022-08-25T10:51:37.402Z,2.25
2022-08-25T10:54:15.581Z,2.45
2022-08-25T10:56:47.914Z,2.50
2022-08-25T10:59:36.654Z,2.60
2022-08-25T11:02:44.835Z,2.65
2022-08-25T11:05:25.033Z,2.60
2022-08-25T11:08:06.418Z,2.53
2022-08-25T11:10:41.940Z,2.40
2022-08-25T11:13:18.132Z,2.75
2022-08-25T11:16:16.155Z,2.72
2022-08-25T11:18:50.888Z,2.58
2022-08-25T11:21:26.210Z,2.50
2022-08-25T11:24:00.890Z,2.60
2022-08-25T11:26:37.323Z,2.25
2022-08-25T11:29:14.572Z,2.47
2022-08-25T11:31:53.407Z,2.35
2022-08-25T11:34:23.445Z,2.20
2022-08-25T11:36:58.026Z,2.45
2022-08-25T11:39:41.547Z,2.42
2022-08-25T11:42:23.765Z,2.60
2022-08-25T11:47:55.042Z,2.40
2022-08-25T11:50:34.978Z,2.10
2022-08-25T11:53:26.769Z,2.40
2022-08-25T11:56:04.298Z,2.30
2022-08-25T11:58:46.229Z,2.30
2022-08-25T12:01:50.429Z,2.40
2022-08-25T12:04:44.279Z,2.20
2022-08-25T12:07:28.898Z,2.72
2022-08-25T12:10:18.675Z,2.17
2022-08-25T12:13:29.819Z,2.30
2022-08-25T12:16:01.399Z,2.85
2022-08-25T12:18:50.504Z,2.53
2022-08-25T12:21:33.916Z,2.20
2022-08-25T12:24:21.937Z,2.45
2022-08-25T12:26:59.077Z,2.30
2022-08-25T12:29:39.025Z,2.45
2022-08-25T12:32:32.445Z,2.97
2022-08-25T12:35:27.004Z,2.45
2022-08-25T12:38:05.730Z,2.58
2022-08-25T12:40:39.062Z,2.50
2022-08-25T12:43:24.844Z,2.20
2022-08-25T12:45:55.221Z,2.25
2022-08-25T12:48:56.169Z,2.20
2022-08-25T12:51:27.485Z,2.33
2022-08-25T12:54:02.254Z,2.40
2022-08-25T12:56:39.410Z,2.22
2022-08-25T12:59:21.812Z,2.42
2022-08-25T13:02:33.065Z,2.22
2022-08-25T13:05:17.239Z,2.40
2022-08-25T13:08:02.578Z,2.30
2022-08-25T13:10:44.769Z,2.40
2022-08-25T13:13:23.927Z,2.10
2022-08-25T13:16:02.045Z,2.67
2022-08-25T13:18:33.260Z,2.53
2022-08-25T13:21:09.632Z,3.10
2022-08-25T13:23:41.847Z,2.40
2022-08-25T13:26:14.003Z,2.50
2022-08-25T13:28:50.303Z,2.60
2022-08-25T13:31:22.292Z,2.65
2022-08-25T13:33:54.860Z,2.78
2022-08-25T13:36:46.994Z,2.65
2022-08-25T13:39:45.688Z,2.63
2022-08-25T13:42:16.882Z,2.38
2022-08-25T13:44:52.545Z,2.47
2022-08-25T13:47:43.688Z,2.70
2022-08-25T13:50:34.303Z,2.50
2022-08-25T13:53:05.742Z,2.22
2022-08-25T13:55:51.171Z,2.25
2022-08-25T13:58:24.252Z,2.30
2022-08-25T14:01:23.194Z,2.17
2022-08-25T14:04:21.637Z,2.00
2022-08-25T14:06:50.434Z,2.15
2022-08-25T14:09:19.734Z,2.60
2022-08-25T14:11:58.183Z,2.22
2022-08-25T14:14:35.990Z,2.10
2022-08-25T14:17:22.156Z,2.25
2022-08-25T14:19:58.836Z,2.10
2022-08-25T14:22:27.712Z,1.98
2022-08-25T14:24:56.700Z,2.40
2022-08-25T14:27:25.067Z,2.05
2022-08-25T14:29:53.647Z,2.10
2022-08-25T14:32:22.049Z,2.22
2022-08-25T14:34:50.659Z,2.10
2022-08-25T14:37:25.345Z,1.90
2022-08-25T14:39:54.718Z,2.13
2022-08-25T14:42:25.254Z,2.10
2022-08-25T14:44:54.706Z,2.13
2022-08-25T14:47:27.650Z,2.20
2022-08-25T14:49:56.110Z,2.00
2022-08-25T14:52:29.783Z,2.20
2022-08-25T14:54:58.201Z,2.30
2022-08-25T14:57:28.981Z,2.00
2022-08-25T14:59:58.069Z,2.30
2022-08-25T15:02:30.658Z,2.10
2022-08-25T15:05:05.740Z,2.47
2022-08-25T15:07:54.306Z,2.35
2022-08-25T15:10:22.812Z,2.10
2022-08-25T15:12:54.145Z,2.20
2022-08-25T15:15:26.323Z,2.20
2022-08-25T15:17:55.314Z,2.03
2022-08-25T15:20:27.865Z,2.20
2022-08-25T15:22:58.826Z,2.47
2022-08-25T15:25:27.239Z,2.47
2022-08-25T15:27:56.021Z,2.20
2022-08-25T15:30:30.697Z,2.10
2022-08-25T15:33:00.224Z,2.20
2022-08-25T15:35:29.328Z,2.15
2022-08-25T15:37:59.125Z,2.05
2022-08-25T15:40:27.899Z,2.10
2022-08-25T15:42:56.683Z,2.22
2022-08-25T15:45:25.380Z,2.30
2022-08-25T15:47:53.978Z,2.25
2022-08-25T15:50:26.054Z,2.40
2022-08-25T15:52:55.043Z,2.10
2022-08-25T15:55:24.764Z,2.15
2022-08-25T15:57:53.353Z,2.20
2022-08-25T16:00:23.069Z,2.40
2022-08-25T16:02:52.411Z,2.45
2022-08-25T16:05:25.712Z,2.45
2022-08-25T16:07:54.366Z,2.25
2022-08-25T16:10:24.142Z,2.42
2022-08-25T16:12:53.502Z,2.35
2022-08-25T16:15:24.014Z,2.20
2022-08-25T16:17:58.871Z,2.17
2022-08-25T16:20:27.348Z,2.33
2022-08-25T16:22:55.774Z,2.45
2022-08-25T16:25:25.459Z,2.13
2022-08-25T16:27:53.903Z,2.22
2022-08-25T16:30:22.572Z,2.30
2022-08-25T16:32:50.986Z,2.33
2022-08-25T16:35:19.434Z,2.00
2022-08-25T16:37:49.211Z,2.10
2022-08-25T16:40:18.879Z,2.00
2022-08-25T16:42:50.430Z,2.20
2022-08-25T16:45:19.278Z,2.45
2022-08-25T16:47:47.780Z,2.00
2022-08-25T16:50:16.991Z,2.13
2022-08-25T16:53:02.556Z,2.08
2022-08-25T16:55:38.776Z,2.30
2022-08-25T16:58:13.341Z,2.10
2022-08-25T17:00:44.018Z,2.10
2022-08-25T17:03:13.247Z,2.13
2022-08-25T17:05:43.533Z,2.20
2022-08-25T17:08:30.976Z,1.90
2022-08-25T17:11:08.413Z,2.10
2022-08-25T17:13:40.630Z,2.22
2022-08-25T17:16:14.628Z,2.00
2022-08-25T17:18:47.743Z,2.10
2022-08-25T17:21:24.621Z,2.00
2022-08-25T17:23:54.294Z,2.22
2022-08-25T17:26:27.595Z,1.95
2022-08-25T17:28:59.687Z,2.30
2022-08-25T17:31:29.904Z,2.17
2022-08-25T17:33:59.341Z,2.30
2022-08-25T17:36:28.425Z,2.10
2022-08-25T17:38:57.202Z,2.55
2022-08-25T17:41:25.923Z,2.67
2022-08-25T17:43:54.329Z,2.55
2022-08-25T17:46:24.821Z,2.42
2022-08-25T17:48:53.556Z,2.20
2022-08-25T17:51:22.850Z,2.17
2022-08-25T17:53:52.750Z,2.70
2022-08-25T17:56:23.107Z,2.83
2022-08-25T17:58:55.034Z,2.10
2022-08-25T18:01:27.015Z,2.50
2022-08-25T18:03:56.233Z,2.35
2022-08-25T18:06:26.017Z,2.50
2022-08-25T18:08:57.487Z,2.70
2022-08-25T18:11:28.806Z,2.40
2022-08-25T18:13:58.870Z,2.38
2022-08-25T18:16:29.528Z,2.20
2022-08-25T18:18:57.910Z,2.40
2022-08-25T18:21:30.284Z,2.65
2022-08-25T18:23:59.781Z,2.40
2022-08-25T18:26:28.247Z,2.42
2022-08-25T18:28:56.779Z,2.75
2022-08-25T18:31:25.457Z,2.65
2022-08-25T18:33:55.352Z,2.55
2022-08-25T18:36:23.974Z,2.70
2022-08-25T18:39:11.653Z,2.45
2022-08-25T18:41:44.892Z,2.40
2022-08-25T18:44:15.503Z,2.50
2022-08-25T18:46:45.467Z,2.58
2022-08-25T18:49:17.232Z,2.30
2022-08-25T18:51:46.294Z,2.33
2022-08-25T18:54:22.776Z,2.33
2022-08-25T18:56:53.225Z,2.30
2022-08-25T18:59:23.699Z,2.40
2022-08-25T19:01:53.822Z,2.50
2022-08-25T19:04:28.644Z,2.63
2022-08-25T19:07:00.635Z,2.50
2022-08-25T19:09:29.151Z,2.65
2022-08-25T19:11:59.152Z,2.40
2022-08-25T19:14:27.873Z,2.60
2022-08-25T19:16:57.909Z,2.70
2022-08-25T19:19:27.881Z,2.65
2022-08-25T19:21:56.232Z,2.78
2022-08-25T19:24:24.933Z,2.70
2022-08-25T19:26:54.718Z,2.50
2022-08-25T19:29:24.563Z,2.60
2022-08-25T19:31:53.227Z,2.65
2022-08-25T19:34:30.375Z,2.47
2022-08-25T19:37:04.355Z,2.70
2022-08-25T19:42:01.527Z,2.70
2022-08-25T19:44:32.275Z,2.60
2022-08-25T19:47:01.161Z,2.60
2022-08-25T19:49:34.259Z,2.72
2022-08-25T19:52:10.619Z,2.50
2022-08-25T19:57:28.495Z,2.75
2022-08-25T20:00:05.334Z,2.80
2022-08-25T20:02:40.555Z,2.58
2022-08-25T20:05:09.689Z,2.90
2022-08-25T20:07:39.824Z,2.75
2022-08-25T20:10:14.183Z,2.65
2022-08-25T20:12:44.673Z,2.85
2022-08-25T20:15:16.429Z,2.60
2022-08-25T20:17:46.034Z,3.17
2022-08-25T20:20:18.678Z,2.80
2022-08-25T20:22:50.298Z,3.00
2022-08-25T20:25:21.399Z,3.05
2022-08-25T20:27:54.655Z,2.92
2022-08-25T20:30:25.762Z,3.17
2022-08-25T20:32:55.804Z,2.90
2022-08-25T20:35:26.563Z,3.00
2022-08-25T20:37:58.305Z,3.13
2022-08-25T20:40:28.605Z,3.53
2022-08-25T20:42:58.568Z,3.20
2022-08-25T20:45:27.701Z,3.10
2022-08-25T20:47:56.524Z,3.08
2022-08-25T20:50:24.964Z,3.05
2022-08-25T20:52:57.546Z,3.40
2022-08-25T20:55:27.688Z,3.50
2022-08-25T20:57:56.204Z,4.00
2022-08-25T21:00:25.069Z,3.70
2022-08-25T21:02:54.111Z,3.63
2022-08-25T21:05:22.642Z,3.47
2022-08-25T21:07:51.126Z,3.28
2022-08-25T21:10:21.187Z,3.15
2022-08-25T21:12:53.393Z,3.20
2022-08-25T21:15:22.191Z,3.72
2022-08-25T21:17:53.073Z,3.28
2022-08-25T21:20:24.645Z,3.22
2022-08-25T21:22:54.308Z,3.50
2022-08-25T21:25:24.034Z,3.40
2022-08-25T21:27:53.639Z,3.83
2022-08-25T21:30:21.987Z,3.42
2022-08-25T21:32:53.787Z,3.72
2022-08-25T21:35:23.465Z,4.10
2022-08-25T21:37:53.573Z,3.75
2022-08-25T21:40:24.087Z,4.07
2022-08-25T21:42:53.299Z,3.65
2022-08-25T21:45:22.128Z,4.00
2022-08-25T21:47:51.987Z,4.03
2022-08-25T21:50:21.248Z,3.55
2022-08-25T21:52:54.426Z,3.45
2022-08-25T21:55:24.932Z,3.28
2022-08-25T21:57:54.664Z,3.42
2022-08-25T22:00:25.301Z,3.33
2022-08-25T22:02:54.032Z,3.53
2022-08-25T22:05:22.480Z,3.25
2022-08-25T22:07:50.796Z,3.58
2022-08-25T22:10:20.693Z,3.50
2022-08-25T22:12:50.390Z,3.22
2022-08-25T22:15:19.148Z,3.58
2022-08-25T22:17:48.786Z,3.53
2022-08-25T22:20:19.567Z,3.30
2022-08-25T22:22:48.563Z,2.95
2022-08-25T22:25:17.121Z,3.50
2022-08-25T22:27:45.450Z,3.22
2022-08-25T22:30:16.430Z,3.42
2022-08-25T22:32:45.702Z,3.25
2022-08-25T22:35:14.119Z,3.28
2022-08-25T22:37:43.079Z,3.50
2022-08-25T22:40:12.435Z,3.40
2022-08-25T22:42:42.998Z,3.50
2022-08-25T22:45:13.243Z,3.10
2022-08-25T22:47:42.959Z,3.15
2022-08-25T22:50:11.746Z,3.17
2022-08-25T22:52:42.348Z,3.50
2022-08-25T22:55:12.091Z,3.50
2022-08-25T22:57:41.330Z,3.20
2022-08-25T23:00:13.956Z,3.97
2022-08-25T23:02:44.646Z,3.70
2022-08-25T23:05:16.149Z,3.88
2022-08-25T23:07:45.070Z,3.78
2022-08-25T23:10:14.741Z,3.65
2022-08-25T23:12:43.829Z,3.65
2022-08-25T23:15:14.170Z,3.83
2022-08-25T23:17:43.946Z,3.67
2022-08-25T23:20:31.029Z,3.10
2022-08-25T23:22:59.814Z,3.70
2022-08-25T23:25:28.594Z,3.42
2022-08-25T23:27:56.940Z,3.42
2022-08-25T23:30:27.595Z,3.40
2022-08-25T23:33:01.277Z,3.27
2022-08-25T23:35:30.053Z,3.60
2022-08-25T23:37:59.095Z,3.35
2022-08-25T23:40:27.695Z,3.58
2022-08-25T23:42:56.078Z,3.70
2022-08-25T23:45:24.483Z,3.67
2022-08-25T23:47:54.143Z,3.20
2022-08-25T23:50:23.945Z,3.85
2022-08-25T23:52:53.363Z,3.30
2022-08-25T23:55:21.819Z,3.80
2022-08-25T23:57:51.571Z,3.60
